Time;durP1;ratioP1;P1;durP2;ratioP2;P2;SDS_P1;SDS_P2;PMS_P1;PMS_P2;Temp;Humidity;BMP_temperature;BMP_pressure;BME280_temperature;BME280_humidity;BME280_pressure;Samples;Min_cycle;Max_cycle;Signal;HPM_P1;HPM_P2
2024/01/02 00:02:20;;;;;;;2.75;1.00;;;5.80;99.90;;;;;;5025395;28;20239;-77
2024/01/02 00:04:48;;;;;;;1.13;0.98;;;5.80;99.90;;;;;;5025167;28;20222;-78
2024/01/02 00:07:15;;;;;;;2.15;0.80;;;5.80;99.90;;;;;;5044172;28;20221;-78
2024/01/02 00:09:42;;;;;;;0.90;0.70;;;5.80;99.90;;;;;;5036382;28;20210;-78
2024/01/02 00:12:08;;;;;;;2.13;0.80;;;5.80;99.90;;;;;;5033501;28;20222;-78
2024/01/02 00:14:36;;;;;;;0.90;0.70;;;5.80;99.90;;;;;;5035739;28;20198;-78
2024/01/02 00:17:03;;;;;;;0.90;0.70;;;5.80;99.90;;;;;;5033825;28;20198;-78
2024/01/02 00:19:30;;;;;;;2.00;1.00;;;5.90;99.90;;;;;;5034016;28;20230;-78
2024/01/02 00:21:57;;;;;;;0.80;0.80;;;5.90;99.90;;;;;;5034558;28;20221;-78
2024/01/02 00:24:23;;;;;;;0.80;0.70;;;5.90;99.90;;;;;;5038262;28;20695;-78
2024/01/02 00:26:50;;;;;;;1.30;1.08;;;5.80;99.90;;;;;;5041792;28;20222;-79
2024/01/02 00:29:17;;;;;;;0.80;0.80;;;5.80;99.90;;;;;;5043833;28;20523;-78
2024/01/02 00:31:46;;;;;;;0.90;0.75;;;5.90;99.90;;;;;;5045911;28;20309;-78
2024/01/02 00:34:13;;;;;;;1.58;0.90;;;5.90;99.90;;;;;;5045516;28;20202;-79
2024/01/02 00:36:39;;;;;;;1.23;0.80;;;5.90;99.90;;;;;;5046771;28;20198;-79
2024/01/02 00:39:06;;;;;;;0.90;0.90;;;6.00;99.90;;;;;;5045809;28;20679;-78
2024/01/02 00:41:33;;;;;;;1.27;1.13;;;6.00;99.90;;;;;;5045571;28;20226;-78
2024/01/02 00:44:00;;;;;;;0.80;0.77;;;5.90;99.90;;;;;;5045187;28;20210;-78
2024/01/02 00:46:27;;;;;;;1.00;0.90;;;6.00;99.90;;;;;;5045128;28;20213;-79
2024/01/02 00:48:55;;;;;;;1.35;1.10;;;5.90;99.90;;;;;;5044471;28;20212;-78
2024/01/02 00:51:21;;;;;;;1.00;0.82;;;5.90;99.90;;;;;;5043562;28;20222;-79
2024/01/02 00:53:48;;;;;;;0.80;0.77;;;5.90;99.90;;;;;;5044447;28;20212;-78
2024/01/02 00:56:15;;;;;;;1.02;0.80;;;5.90;99.90;;;;;;5037165;28;20202;-79
2024/01/02 00:58:42;;;;;;;0.80;0.80;;;5.80;99.90;;;;;;5044780;28;20204;-79
2024/01/02 01:01:08;;;;;;;1.00;0.70;;;5.80;99.90;;;;;;5041442;28;20722;-77
2024/01/02 01:03:35;;;;;;;0.70;0.60;;;5.80;99.90;;;;;;5043257;28;20198;-78
2024/01/02 01:06:04;;;;;;;1.25;0.90;;;5.90;99.90;;;;;;5043511;28;20265;-78
2024/01/02 01:08:30;;;;;;;1.30;0.85;;;5.90;99.90;;;;;;5039731;28;20706;-77
2024/01/02 01:10:57;;;;;;;1.38;1.27;;;5.90;99.90;;;;;;5038886;28;20232;-77
2024/01/02 01:13:24;;;;;;;2.53;1.27;;;5.90;99.90;;;;;;5040229;28;20705;-77
2024/01/02 01:15:50;;;;;;;1.00;0.80;;;5.90;99.90;;;;;;5040636;28;20244;-77
2024/01/02 01:18:17;;;;;;;0.80;0.77;;;5.90;99.90;;;;;;5033470;28;20197;-78
2024/01/02 01:20:44;;;;;;;1.23;1.13;;;5.80;99.90;;;;;;5037643;28;20305;-77
2024/01/02 01:23:12;;;;;;;1.92;1.20;;;5.80;99.90;;;;;;5040050;28;20588;-79
2024/01/02 01:25:39;;;;;;;2.08;1.10;;;5.90;99.90;;;;;;5038357;28;20201;-79
2024/01/02 01:28:06;;;;;;;1.20;1.10;;;5.90;99.90;;;;;;5042184;28;20600;-78
2024/01/02 01:30:32;;;;;;;0.95;0.77;;;5.90;99.90;;;;;;5042559;28;20205;-78
2024/01/02 01:32:59;;;;;;;1.38;0.95;;;5.90;99.90;;;;;;5041374;28;20209;-77
2024/01/02 01:35:26;;;;;;;1.50;1.10;;;5.90;99.90;;;;;;5041287;28;20413;-78
2024/01/02 01:37:53;;;;;;;0.77;0.70;;;5.90;99.90;;;;;;5041972;28;20198;-78
2024/01/02 01:40:21;;;;;;;4.15;1.35;;;5.80;99.90;;;;;;5036118;28;20202;-78
2024/01/02 01:42:48;;;;;;;1.20;1.00;;;5.80;99.90;;;;;;5042810;28;20210;-78
2024/01/02 01:45:14;;;;;;;1.65;1.20;;;5.80;99.90;;;;;;5041824;28;20216;-78
2024/01/02 01:47:41;;;;;;;1.30;0.77;;;5.90;99.90;;;;;;5043358;28;20222;-78
2024/01/02 01:50:09;;;;;;;0.93;0.82;;;5.90;99.90;;;;;;5034378;28;20630;-78
2024/01/02 01:52:36;;;;;;;1.52;1.10;;;5.90;99.90;;;;;;5031576;28;20601;-78
2024/01/02 01:55:04;;;;;;;1.50;0.90;;;5.90;99.90;;;;;;5031833;28;20217;-78
2024/01/02 01:57:33;;;;;;;2.35;0.80;;;5.90;99.90;;;;;;5031751;28;20198;-78
2024/01/02 02:00:00;;;;;;;0.90;0.80;;;5.90;99.90;;;;;;5032029;28;20221;-78
2024/01/02 02:02:27;;;;;;;0.80;0.75;;;5.90;99.90;;;;;;5030981;28;20228;-78
2024/01/02 02:04:54;;;;;;;2.33;0.75;;;5.90;99.90;;;;;;5031942;28;20202;-77
2024/01/02 02:07:21;;;;;;;0.93;0.70;;;5.90;99.90;;;;;;5031346;28;20221;-78
2024/01/02 02:09:48;;;;;;;0.80;0.70;;;6.00;99.90;;;;;;5031741;28;20206;-78
2024/01/02 02:12:15;;;;;;;1.15;0.90;;;6.00;99.90;;;;;;5029202;28;20741;-78
2024/01/02 02:14:43;;;;;;;1.60;1.30;;;6.00;99.90;;;;;;5031982;28;20205;-78
2024/01/02 02:17:18;;;;;;;1.48;0.90;;;6.00;99.90;;;;;;5032043;28;20592;-77
2024/01/02 02:19:44;;;;;;;1.17;0.82;;;6.00;99.90;;;;;;5032310;28;20751;-78
2024/01/02 02:22:14;;;;;;;4.32;0.90;;;6.00;99.90;;;;;;5030167;28;20581;-78
2024/01/02 02:24:42;;;;;;;1.00;0.80;;;6.00;99.90;;;;;;5032052;28;20202;-78
2024/01/02 02:27:09;;;;;;;0.80;0.73;;;6.00;99.90;;;;;;5032223;28;20745;-78
2024/01/02 02:29:36;;;;;;;1.77;0.70;;;6.00;99.90;;;;;;5032322;28;20201;-78
2024/01/02 02:32:03;;;;;;;0.80;0.70;;;6.00;99.90;;;;;;5032659;28;20228;-78
2024/01/02 02:34:30;;;;;;;1.30;0.75;;;6.00;99.90;;;;;;5036453;28;20210;-78
2024/01/02 02:36:56;;;;;;;0.80;0.80;;;6.00;99.90;;;;;;5036917;28;20682;-77
2024/01/02 02:39:23;;;;;;;1.00;0.68;;;6.00;99.90;;;;;;5039036;28;20202;-78
2024/01/02 02:41:51;;;;;;;0.80;0.80;;;6.00;99.90;;;;;;5038919;28;20233;-78
2024/01/02 02:44:18;;;;;;;1.60;1.00;;;6.00;99.90;;;;;;5041066;28;20210;-78
2024/01/02 02:46:45;;;;;;;1.50;0.90;;;5.90;99.90;;;;;;5041518;28;20582;-78
2024/01/02 02:49:11;;;;;;;2.35;0.98;;;5.90;99.90;;;;;;5038795;28;20757;-78
2024/01/02 02:51:38;;;;;;;1.60;1.10;;;5.80;99.90;;;;;;5040914;28;20229;-79
2024/01/02 02:54:05;;;;;;;2.00;0.90;;;5.80;99.90;;;;;;5041120;28;20213;-78
2024/01/02 02:56:31;;;;;;;0.80;0.75;;;5.80;99.90;;;;;;5044706;28;20210;-79
2024/01/02 02:59:00;;;;;;;2.35;1.17;;;5.80;99.90;;;;;;5044894;28;20212;-78
2024/01/02 03:01:26;;;;;;;0.80;0.70;;;5.80;99.90;;;;;;5045598;28;20225;-79
2024/01/02 03:03:53;;;;;;;0.80;0.73;;;5.70;99.90;;;;;;5044984;28;20209;-78
2024/01/02 03:06:20;;;;;;;1.10;0.80;;;5.60;99.90;;;;;;5040338;28;20635;-78
2024/01/02 03:08:47;;;;;;;0.88;0.77;;;5.60;99.90;;;;;;5040052;28;20713;-78
2024/01/02 03:11:13;;;;;;;1.27;0.95;;;5.60;99.90;;;;;;5045505;28;20320;-78
2024/01/02 03:13:40;;;;;;;1.13;0.95;;;5.60;99.90;;;;;;5045884;28;20205;-78
2024/01/02 03:16:10;;;;;;;1.90;0.82;;;5.60;99.90;;;;;;5044699;28;20227;-78
2024/01/02 03:18:37;;;;;;;1.35;0.98;;;5.60;99.90;;;;;;5044397;28;20213;-78
2024/01/02 03:21:04;;;;;;;0.90;0.80;;;5.60;99.90;;;;;;5044427;28;20226;-78
2024/01/02 03:23:31;;;;;;;1.17;1.08;;;5.60;99.90;;;;;;5046329;28;20206;-78
2024/01/02 03:25:57;;;;;;;0.90;0.70;;;5.60;99.90;;;;;;5046887;28;20202;-78
2024/01/02 03:28:24;;;;;;;0.70;0.60;;;5.60;99.90;;;;;;5042682;28;20229;-77
2024/01/02 03:30:53;;;;;;;0.85;0.80;;;5.60;99.90;;;;;;5034524;28;20218;-77
2024/01/02 03:33:21;;;;;;;1.23;0.80;;;5.50;99.90;;;;;;5034307;28;20237;-78
2024/01/02 03:35:48;;;;;;;0.80;0.80;;;5.50;99.90;;;;;;5034711;28;20213;-78
2024/01/02 03:38:15;;;;;;;1.83;0.90;;;5.60;99.90;;;;;;5034129;28;20205;-78
2024/01/02 03:40:42;;;;;;;0.82;0.82;;;5.60;99.90;;;;;;5034221;28;20598;-77
2024/01/02 03:43:08;;;;;;;2.67;1.02;;;5.50;99.90;;;;;;5033729;28;20210;-77
2024/01/02 03:45:35;;;;;;;1.02;0.90;;;5.50;99.90;;;;;;5034336;28;20209;-78
2024/01/02 03:48:02;;;;;;;1.10;0.90;;;5.50;99.90;;;;;;5035654;28;20221;-78
2024/01/02 03:50:30;;;;;;;0.93;0.80;;;5.50;99.90;;;;;;5028967;28;20586;-78
2024/01/02 03:52:57;;;;;;;0.80;0.77;;;5.50;99.90;;;;;;5035439;28;20205;-78
2024/01/02 03:55:23;;;;;;;1.38;0.82;;;5.50;99.90;;;;;;5043027;28;20667;-78
2024/01/02 03:57:50;;;;;;;2.25;0.80;;;5.50;99.90;;;;;;5044845;28;20209;-78
2024/01/02 04:00:17;;;;;;;0.70;0.60;;;5.50;99.90;;;;;;5044195;28;20212;-78
2024/01/02 04:02:44;;;;;;;1.00;0.90;;;5.50;99.90;;;;;;5042303;28;20221;-78
2024/01/02 04:05:11;;;;;;;0.80;0.77;;;5.50;99.90;;;;;;5039264;28;20212;-78
2024/01/02 04:07:39;;;;;;;1.30;0.95;;;5.50;99.90;;;;;;5043557;28;20222;-78
2024/01/02 04:10:07;;;;;;;0.70;0.65;;;5.60;99.90;;;;;;5043126;28;20217;-78
2024/01/02 04:12:34;;;;;;;0.80;0.70;;;5.60;99.90;;;;;;5038360;28;20249;-78
2024/01/02 04:15:01;;;;;;;0.80;0.70;;;5.60;99.90;;;;;;5042243;28;20225;-77
2024/01/02 04:17:27;;;;;;;1.20;0.73;;;5.60;99.90;;;;;;5037270;28;20230;-78
2024/01/02 04:19:54;;;;;;;0.80;0.75;;;5.50;99.90;;;;;;5036443;28;20202;-78
2024/01/02 04:22:21;;;;;;;0.70;0.68;;;5.50;99.90;;;;;;5032278;28;20234;-78
2024/01/02 04:24:49;;;;;;;0.80;0.77;;;5.60;99.90;;;;;;5037090;28;20205;-78
2024/01/02 04:27:16;;;;;;;1.35;0.70;;;5.50;99.90;;;;;;5037427;28;20210;-78
2024/01/02 04:29:42;;;;;;;1.08;0.90;;;5.50;99.90;;;;;;5038450;28;20587;-79
2024/01/02 04:32:09;;;;;;;1.00;0.70;;;5.50;99.90;;;;;;5029889;28;20226;-77
2024/01/02 04:34:36;;;;;;;1.77;0.82;;;5.50;99.90;;;;;;5030309;28;20285;-77
2024/01/02 04:37:03;;;;;;;0.90;0.80;;;5.50;99.90;;;;;;5027772;28;20671;-78
2024/01/02 04:39:29;;;;;;;1.15;0.90;;;5.40;99.90;;;;;;5030002;28;20213;-77
2024/01/02 04:41:57;;;;;;;0.98;0.80;;;5.40;99.90;;;;;;5021258;28;20255;-78
2024/01/02 04:44:24;;;;;;;0.70;0.60;;;5.40;99.90;;;;;;5012070;28;20206;-78
2024/01/02 04:46:51;;;;;;;0.80;0.70;;;5.40;99.90;;;;;;5016225;28;20588;-78
2024/01/02 04:49:18;;;;;;;1.77;0.80;;;5.40;99.90;;;;;;5009991;28;20236;-78
2024/01/02 04:51:45;;;;;;;2.55;1.05;;;5.30;99.90;;;;;;5007473;28;20226;-78
2024/01/02 04:54:11;;;;;;;1.30;1.10;;;5.30;99.90;;;;;;5006433;28;20588;-78
2024/01/02 04:56:38;;;;;;;0.80;0.70;;;5.30;99.90;;;;;;5011481;28;20205;-78
2024/01/02 04:59:07;;;;;;;0.70;0.70;;;5.30;99.90;;;;;;5009872;28;20217;-78
2024/01/02 05:01:34;;;;;;;0.70;0.60;;;5.30;99.90;;;;;;5009913;28;20683;-78
2024/01/02 05:04:00;;;;;;;1.42;1.33;;;5.20;99.90;;;;;;5008772;28;20207;-78
2024/01/02 05:06:27;;;;;;;0.80;0.70;;;5.20;99.90;;;;;;5008325;28;20829;-77
2024/01/02 05:08:53;;;;;;;1.08;0.80;;;5.20;99.90;;;;;;5007790;28;20222;-77
2024/01/02 05:11:20;;;;;;;0.70;0.70;;;5.20;99.90;;;;;;5007024;28;20312;-77
2024/01/02 05:13:46;;;;;;;0.90;0.80;;;5.20;99.90;;;;;;5001434;28;20290;-76
2024/01/02 05:16:14;;;;;;;0.80;0.70;;;5.20;99.90;;;;;;5002167;28;20690;-76
2024/01/02 05:18:41;;;;;;;0.70;0.60;;;5.20;99.90;;;;;;5000182;28;20550;-77
2024/01/02 05:21:08;;;;;;;1.05;0.90;;;5.30;99.90;;;;;;5002289;28;20238;-76
2024/01/02 05:23:35;;;;;;;0.80;0.70;;;5.30;99.90;;;;;;5006784;28;20575;-76
2024/01/02 05:26:02;;;;;;;0.77;0.73;;;5.30;99.90;;;;;;5004780;28;20206;-76
2024/01/02 05:28:30;;;;;;;0.80;0.70;;;5.40;99.90;;;;;;5005246;28;20218;-76
2024/01/02 05:30:56;;;;;;;0.80;0.73;;;5.40;99.90;;;;;;5010939;28;20314;-79
2024/01/02 05:33:24;;;;;;;0.80;0.70;;;5.40;99.90;;;;;;5010737;28;20218;-80
2024/01/02 05:35:51;;;;;;;0.70;0.70;;;5.40;99.90;;;;;;5023048;28;20205;-79
2024/01/02 05:38:18;;;;;;;1.10;0.80;;;5.30;99.90;;;;;;5007395;28;20616;-80
2024/01/02 05:40:45;;;;;;;1.38;1.13;;;5.30;99.90;;;;;;5013506;28;20230;-78
2024/01/02 05:43:11;;;;;;;0.70;0.70;;;5.30;99.90;;;;;;5030761;28;20210;-80
2024/01/02 05:45:39;;;;;;;1.02;0.90;;;5.30;99.90;;;;;;5030523;28;20220;-78
2024/01/02 05:48:07;;;;;;;1.13;0.80;;;5.30;99.90;;;;;;5022311;28;20721;-79
2024/01/02 05:50:35;;;;;;;1.65;0.90;;;5.30;99.90;;;;;;5026480;28;20209;-79
2024/01/02 05:53:01;;;;;;;1.00;0.80;;;5.30;99.90;;;;;;5026714;28;20202;-77
2024/01/02 05:55:28;;;;;;;0.95;0.88;;;5.30;99.90;;;;;;5030727;28;20693;-78
2024/01/02 05:57:55;;;;;;;0.80;0.70;;;5.30;99.90;;;;;;5029407;28;20198;-77
2024/01/02 06:00:22;;;;;;;0.70;0.60;;;5.30;99.90;;;;;;5018398;28;20215;-78
2024/01/02 06:02:48;;;;;;;0.70;0.60;;;5.30;99.90;;;;;;5020946;28;20727;-78
2024/01/02 06:05:16;;;;;;;0.70;0.60;;;5.40;99.90;;;;;;5023371;28;20276;-80
2024/01/02 06:07:44;;;;;;;1.00;0.90;;;5.40;99.90;;;;;;5034464;28;20738;-80
2024/01/02 06:10:12;;;;;;;1.25;0.90;;;5.40;99.90;;;;;;5031955;28;20697;-78
2024/01/02 06:12:39;;;;;;;1.10;1.00;;;5.40;99.90;;;;;;5024654;28;20607;-77
2024/01/02 06:15:06;;;;;;;1.25;0.98;;;5.40;99.90;;;;;;5022673;28;20217;-77
2024/01/02 06:17:33;;;;;;;1.00;0.90;;;5.40;99.90;;;;;;5022964;28;20216;-78
2024/01/02 06:20:00;;;;;;;2.55;0.90;;;5.40;99.90;;;;;;5028722;28;20201;-79
2024/01/02 06:22:26;;;;;;;0.70;0.70;;;5.50;99.90;;;;;;5031533;28;20225;-77
2024/01/02 06:24:54;;;;;;;0.70;0.60;;;5.50;99.90;;;;;;5035024;28;20217;-78
2024/01/02 06:27:21;;;;;;;0.90;0.70;;;5.50;99.90;;;;;;5025844;28;20594;-80
2024/01/02 06:29:48;;;;;;;0.80;0.70;;;5.50;99.90;;;;;;5032363;28;20217;-80
2024/01/02 06:32:15;;;;;;;0.70;0.63;;;5.50;99.90;;;;;;5035162;28;20250;-79
2024/01/02 06:34:42;;;;;;;0.77;0.70;;;5.50;99.90;;;;;;5034176;28;20217;-79
2024/01/02 06:37:08;;;;;;;1.10;0.70;;;5.50;99.90;;;;;;5036497;28;20706;-78
2024/01/02 06:39:35;;;;;;;1.13;0.85;;;5.60;99.90;;;;;;5035825;28;20223;-78
2024/01/02 06:42:03;;;;;;;0.70;0.60;;;5.60;99.90;;;;;;5037352;28;20222;-80
2024/01/02 06:44:30;;;;;;;0.80;0.80;;;5.60;99.90;;;;;;5036651;28;20206;-80
2024/01/02 06:46:57;;;;;;;0.80;0.70;;;5.60;99.90;;;;;;5037285;28;20209;-79
2024/01/02 06:49:23;;;;;;;1.20;1.10;;;5.60;99.90;;;;;;5037462;28;20226;-79
2024/01/02 06:51:51;;;;;;;0.90;0.70;;;5.60;99.90;;;;;;5031694;28;20218;-78
2024/01/02 06:54:17;;;;;;;0.80;0.80;;;5.70;99.90;;;;;;5023390;28;20206;-79
2024/01/02 06:56:44;;;;;;;0.80;0.70;;;5.70;99.90;;;;;;5025948;28;20214;-78
2024/01/02 06:59:12;;;;;;;1.02;0.80;;;5.70;99.90;;;;;;5019518;28;20225;-77
2024/01/02 07:01:39;;;;;;;1.10;0.90;;;5.70;99.90;;;;;;5021083;28;20237;-77
2024/01/02 07:04:05;;;;;;;2.50;0.95;;;5.80;99.90;;;;;;5028834;28;20220;-76
2024/01/02 07:06:32;;;;;;;0.80;0.70;;;5.80;99.90;;;;;;5028283;28;20213;-77
2024/01/02 07:08:59;;;;;;;2.03;0.90;;;5.80;99.90;;;;;;5034372;28;20218;-78
2024/01/02 07:11:25;;;;;;;1.55;1.02;;;5.80;99.90;;;;;;5035247;28;20225;-79
2024/01/02 07:13:52;;;;;;;1.80;0.80;;;5.80;99.90;;;;;;5035080;28;20209;-77
2024/01/02 07:16:20;;;;;;;1.10;0.80;;;5.80;99.90;;;;;;5030152;28;20206;-77
2024/01/02 07:18:47;;;;;;;0.80;0.70;;;5.80;99.90;;;;;;5026649;28;20213;-77
2024/01/02 07:21:14;;;;;;;1.20;0.90;;;5.80;99.90;;;;;;5035047;28;20226;-78
2024/01/02 07:23:40;;;;;;;1.17;0.82;;;5.80;99.90;;;;;;5024939;28;20210;-77
2024/01/02 07:26:07;;;;;;;1.20;1.00;;;5.80;99.90;;;;;;5026438;28;20385;-77
2024/01/02 07:28:36;;;;;;;0.90;0.80;;;5.90;99.90;;;;;;5031509;28;20206;-79
2024/01/02 07:31:02;;;;;;;3.83;0.98;;;5.90;99.90;;;;;;5033231;28;20749;-76
2024/01/02 07:33:31;;;;;;;0.80;0.70;;;5.90;99.90;;;;;;5033475;28;20221;-77
2024/01/02 07:35:58;;;;;;;0.85;0.70;;;5.90;99.90;;;;;;5033215;28;20244;-77
2024/01/02 07:38:26;;;;;;;1.33;0.70;;;5.90;99.90;;;;;;5033138;28;20209;-77
2024/01/02 07:40:52;;;;;;;1.00;0.90;;;5.90;99.90;;;;;;5033066;28;20233;-76
2024/01/02 07:43:19;;;;;;;0.90;0.70;;;5.90;99.90;;;;;;5037307;28;20209;-78
2024/01/02 07:45:46;;;;;;;0.90;0.80;;;5.90;99.90;;;;;;5032911;28;20202;-79
2024/01/02 07:48:13;;;;;;;0.80;0.70;;;5.90;99.90;;;;;;5032253;28;20297;-77
2024/01/02 07:50:41;;;;;;;0.80;0.70;;;6.00;99.90;;;;;;5040502;28;20222;-79
2024/01/02 07:53:08;;;;;;;1.15;1.05;;;6.00;99.90;;;;;;5035062;28;20217;-78
2024/01/02 07:55:34;;;;;;;0.80;0.70;;;6.00;99.90;;;;;;5031183;28;20206;-77
2024/01/02 07:58:01;;;;;;;2.10;1.20;;;6.00;99.90;;;;;;5023038;28;20257;-77
2024/01/02 08:00:28;;;;;;;1.88;0.70;;;6.00;99.90;;;;;;5018413;28;20297;-78
2024/01/02 08:02:54;;;;;;;0.80;0.70;;;6.10;99.90;;;;;;5019623;28;20205;-77
2024/01/02 08:05:21;;;;;;;0.93;0.73;;;6.20;99.90;;;;;;5017707;28;20211;-77
2024/01/02 08:07:49;;;;;;;0.80;0.70;;;6.20;99.90;;;;;;5031792;28;20212;-79
2024/01/02 08:10:16;;;;;;;1.00;0.93;;;6.30;99.90;;;;;;5035337;28;20604;-76
2024/01/02 08:12:43;;;;;;;0.70;0.60;;;6.30;99.90;;;;;;5033408;28;20233;-79
2024/01/02 08:15:10;;;;;;;0.80;0.80;;;6.40;99.90;;;;;;5034692;28;20209;-78
2024/01/02 08:17:37;;;;;;;0.70;0.70;;;6.40;99.90;;;;;;5028595;28;20595;-78
2024/01/02 08:20:05;;;;;;;0.80;0.70;;;6.50;99.90;;;;;;5022018;28;20678;-78
2024/01/02 08:22:32;;;;;;;0.80;0.77;;;6.50;99.90;;;;;;5035317;28;20237;-77
2024/01/02 08:25:00;;;;;;;0.80;0.80;;;6.50;99.90;;;;;;5034632;28;20213;-76
2024/01/02 08:27:28;;;;;;;1.15;0.90;;;6.60;99.90;;;;;;5034468;28;20212;-77
2024/01/02 08:29:54;;;;;;;1.35;0.80;;;6.60;99.90;;;;;;5034305;28;20431;-77
2024/01/02 08:32:21;;;;;;;0.70;0.70;;;6.70;99.90;;;;;;5035819;28;20226;-78
2024/01/02 08:34:49;;;;;;;0.90;0.70;;;6.70;99.90;;;;;;5035107;28;20301;-77
2024/01/02 08:37:15;;;;;;;0.95;0.70;;;6.80;99.90;;;;;;5032614;28;20205;-77
2024/01/02 08:39:42;;;;;;;0.80;0.70;;;6.80;99.90;;;;;;5031883;28;20209;-76
2024/01/02 08:42:10;;;;;;;0.98;0.70;;;6.80;99.90;;;;;;5028094;28;20234;-77
2024/01/02 08:44:37;;;;;;;0.80;0.70;;;6.90;99.90;;;;;;5017333;28;20590;-78
2024/01/02 08:47:04;;;;;;;0.77;0.70;;;6.90;99.90;;;;;;5037461;28;20296;-78
2024/01/02 08:49:31;;;;;;;1.00;0.70;;;6.90;99.90;;;;;;5039864;28;20608;-81
2024/01/02 08:51:58;;;;;;;0.70;0.68;;;7.00;99.90;;;;;;5019543;28;20576;-79
2024/01/02 08:54:25;;;;;;;1.42;0.88;;;7.00;99.90;;;;;;5018515;28;20210;-78
2024/01/02 08:56:53;;;;;;;0.90;0.80;;;7.00;99.90;;;;;;5022908;28;20213;-77
2024/01/02 08:59:21;;;;;;;0.80;0.60;;;7.10;99.90;;;;;;5014755;28;20203;-76
2024/01/02 09:01:51;;;;;;;0.90;0.70;;;7.10;99.90;;;;;;5015353;28;20235;-76
2024/01/02 09:04:18;;;;;;;0.82;0.75;;;7.10;99.90;;;;;;5014462;28;20211;-77
2024/01/02 09:06:45;;;;;;;2.15;0.88;;;7.20;99.90;;;;;;5015157;28;20210;-76
2024/01/02 09:09:11;;;;;;;0.80;0.70;;;7.20;99.90;;;;;;5024638;28;20254;-77
2024/01/02 09:11:38;;;;;;;0.88;0.80;;;7.20;99.90;;;;;;5031324;28;20225;-77
2024/01/02 09:14:05;;;;;;;1.17;0.80;;;7.20;99.90;;;;;;5031427;28;20229;-76
2024/01/02 09:16:35;;;;;;;0.88;0.73;;;7.30;99.90;;;;;;5027214;28;20206;-78
2024/01/02 09:19:02;;;;;;;0.80;0.73;;;7.30;99.90;;;;;;5019793;28;20208;-78
2024/01/02 09:21:29;;;;;;;0.70;0.60;;;7.40;99.90;;;;;;5014711;28;20293;-78
2024/01/02 09:23:56;;;;;;;0.70;0.70;;;7.50;99.90;;;;;;5030379;28;20206;-79
2024/01/02 09:26:24;;;;;;;0.90;0.70;;;7.50;99.90;;;;;;5032478;28;20209;-79
2024/01/02 09:28:51;;;;;;;0.70;0.60;;;7.60;99.90;;;;;;5041877;28;20224;-78
2024/01/02 09:31:19;;;;;;;0.80;0.70;;;7.70;99.90;;;;;;5029416;28;20226;-78
2024/01/02 09:33:47;;;;;;;0.80;0.70;;;7.80;99.90;;;;;;5028447;28;20206;-78
2024/01/02 09:36:14;;;;;;;2.97;0.75;;;7.80;99.90;;;;;;5024304;28;20221;-79
2024/01/02 09:38:42;;;;;;;0.77;0.65;;;7.90;99.90;;;;;;5029042;28;20268;-80
2024/01/02 09:41:25;;;;;;;0.95;0.88;;;8.00;99.90;;;;;;5032327;28;20736;-78
2024/01/02 09:44:03;;;;;;;1.00;0.70;;;8.00;99.90;;;;;;5021506;28;20233;-78
2024/01/02 09:46:37;;;;;;;0.90;0.70;;;8.00;99.90;;;;;;5022037;28;20223;-79
2024/01/02 09:49:21;;;;;;;0.90;0.80;;;8.10;99.90;;;;;;5033397;28;20204;-79
2024/01/02 09:52:06;;;;;;;0.73;0.68;;;8.10;99.90;;;;;;5033810;28;20226;-77
2024/01/02 09:54:45;;;;;;;0.73;0.63;;;8.10;99.90;;;;;;5031121;28;20213;-77
2024/01/02 09:57:17;;;;;;;0.70;0.60;;;8.10;99.90;;;;;;5030496;28;20214;-78
2024/01/02 09:59:57;;;;;;;0.77;0.70;;;8.20;99.90;;;;;;5030896;28;20212;-78
2024/01/02 10:02:47;;;;;;;0.77;0.70;;;8.20;99.90;;;;;;5012082;28;20833;-79
2024/01/02 10:05:27;;;;;;;0.70;0.60;;;8.20;99.90;;;;;;5023339;28;20226;-77
2024/01/02 10:08:17;;;;;;;0.70;0.60;;;8.30;99.90;;;;;;5021821;28;20361;-78
2024/01/02 10:10:53;;;;;;;1.00;0.80;;;8.40;99.90;;;;;;5012257;28;20234;-78
2024/01/02 10:13:24;;;;;;;0.85;0.60;;;8.40;99.90;;;;;;5024653;28;20230;-78
2024/01/02 10:16:04;;;;;;;0.70;0.60;;;8.50;99.90;;;;;;5031654;28;20206;-79
2024/01/02 10:18:42;;;;;;;0.70;0.60;;;8.50;99.90;;;;;;5031613;28;20301;-78
2024/01/02 10:21:22;;;;;;;0.70;0.60;;;8.60;99.90;;;;;;5019928;28;20230;-78
2024/01/02 10:24:11;;;;;;;0.70;0.60;;;8.60;99.90;;;;;;5012680;28;20235;-78
2024/01/02 10:26:40;;;;;;;0.70;0.60;;;8.60;99.90;;;;;;5032209;28;20207;-79
2024/01/02 10:29:32;;;;;;;0.90;0.70;;;8.70;99.90;;;;;;5031401;28;20645;-78
2024/01/02 10:32:04;;;;;;;1.10;1.00;;;8.70;99.90;;;;;;5030988;28;20224;-79
2024/01/02 10:34:36;;;;;;;0.70;0.60;;;8.70;99.90;;;;;;5017232;28;20587;-78
2024/01/02 10:37:06;;;;;;;0.70;0.60;;;8.70;99.90;;;;;;5021824;28;20201;-78
2024/01/02 10:39:40;;;;;;;0.70;0.60;;;8.70;99.90;;;;;;5031072;28;20205;-78
2024/01/02 10:42:24;;;;;;;0.90;0.60;;;8.70;99.90;;;;;;5026970;28;20249;-78
2024/01/02 10:45:06;;;;;;;0.80;0.70;;;8.70;99.90;;;;;;5013516;28;20208;-79
2024/01/02 10:47:44;;;;;;;0.82;0.70;;;8.80;99.90;;;;;;5033369;28;20284;-77
2024/01/02 10:50:17;;;;;;;0.70;0.60;;;8.80;99.90;;;;;;5021836;28;20277;-77
2024/01/02 10:52:55;;;;;;;0.70;0.60;;;8.80;99.90;;;;;;5013899;28;20223;-77
2024/01/02 10:55:28;;;;;;;1.10;0.80;;;8.90;99.90;;;;;;5010231;28;20274;-77
2024/01/02 10:58:02;;;;;;;0.80;0.70;;;8.90;99.90;;;;;;5032963;28;20204;-77
2024/01/02 11:00:33;;;;;;;0.80;0.70;;;8.90;99.90;;;;;;5035744;28;20739;-77
2024/01/02 11:03:06;;;;;;;0.70;0.60;;;9.00;99.90;;;;;;5033954;28;20206;-77
2024/01/02 11:05:42;;;;;;;0.70;0.60;;;9.00;99.90;;;;;;5018193;28;20315;-77
2024/01/02 11:08:20;;;;;;;0.70;0.60;;;9.00;99.90;;;;;;5026359;28;20587;-76
2024/01/02 11:10:54;;;;;;;0.70;0.60;;;9.10;99.90;;;;;;5018671;28;20222;-77
2024/01/02 11:13:22;;;;;;;0.77;0.68;;;9.10;99.90;;;;;;5011296;28;20287;-77
2024/01/02 11:15:57;;;;;;;0.80;0.70;;;9.10;99.90;;;;;;5034755;28;20208;-77
2024/01/02 11:18:27;;;;;;;0.80;0.70;;;9.20;99.90;;;;;;5020570;28;20557;-77
2024/01/02 11:21:04;;;;;;;0.80;0.60;;;9.30;99.90;;;;;;5021621;28;20307;-80
2024/01/02 11:23:40;;;;;;;0.85;0.70;;;9.40;99.90;;;;;;5042817;28;20293;-78
2024/01/02 11:26:13;;;;;;;0.75;0.60;;;9.40;99.90;;;;;;5024502;28;20316;-78
2024/01/02 11:28:42;;;;;;;0.80;0.70;;;9.40;99.90;;;;;;5029769;28;20592;-79
2024/01/02 11:31:12;;;;;;;0.80;0.60;;;9.40;99.90;;;;;;5031633;28;20237;-79
2024/01/02 11:33:50;;;;;;;0.85;0.65;;;9.50;99.90;;;;;;5036324;28;20209;-78
2024/01/02 11:36:26;;;;;;;0.70;0.70;;;9.60;99.90;;;;;;5020729;28;20210;-77
2024/01/02 11:39:04;;;;;;;0.80;0.70;;;9.50;99.90;;;;;;5021894;28;20202;-77
2024/01/02 11:41:44;;;;;;;0.80;0.70;;;9.50;99.90;;;;;;5039799;28;20250;-78
2024/01/02 11:44:36;;;;;;;1.00;0.75;;;9.40;99.90;;;;;;5037421;28;20217;-77
2024/01/02 11:47:05;;;;;;;0.80;0.70;;;9.40;99.90;;;;;;5034391;28;20205;-78
2024/01/02 11:49:38;;;;;;;0.80;0.70;;;9.40;99.90;;;;;;5022877;28;20209;-78
2024/01/02 11:52:17;;;;;;;0.80;0.70;;;9.30;99.90;;;;;;5023333;28;20263;-78
2024/01/02 11:54:55;;;;;;;0.90;0.73;;;9.40;99.90;;;;;;5032759;28;20215;-78
2024/01/02 11:57:26;;;;;;;1.10;0.80;;;9.40;99.90;;;;;;5024233;28;20232;-78
2024/01/02 12:00:00;;;;;;;0.90;0.73;;;9.50;99.90;;;;;;5023409;28;20221;-78
2024/01/02 12:02:41;;;;;;;0.80;0.73;;;9.60;99.90;;;;;;5023797;28;20217;-78
2024/01/02 12:05:20;;;;;;;0.85;0.70;;;9.60;99.90;;;;;;5026039;28;20225;-78
2024/01/02 12:07:53;;;;;;;0.90;0.70;;;9.60;99.90;;;;;;5025689;28;20221;-78
2024/01/02 12:10:26;;;;;;;0.80;0.70;;;9.50;99.90;;;;;;5026410;28;20221;-78
2024/01/02 12:13:02;;;;;;;0.80;0.70;;;9.50;99.90;;;;;;5025229;28;20219;-77
2024/01/02 12:15:41;;;;;;;0.80;0.60;;;9.40;99.90;;;;;;5025942;28;20289;-77
2024/01/02 12:18:10;;;;;;;1.00;0.70;;;9.30;99.90;;;;;;5025506;28;20233;-78
2024/01/02 12:20:42;;;;;;;1.60;0.82;;;9.30;99.90;;;;;;5024933;28;20292;-78
2024/01/02 12:23:09;;;;;;;2.30;1.17;;;9.30;99.90;;;;;;5023440;28;20203;-77
2024/01/02 12:25:43;;;;;;;0.90;0.80;;;9.20;99.90;;;;;;5023262;28;20206;-78
2024/01/02 12:28:12;;;;;;;1.30;1.00;;;9.10;99.90;;;;;;5018073;28;20216;-78
2024/01/02 12:30:44;;;;;;;0.82;0.68;;;9.10;99.90;;;;;;5018951;28;20605;-78
2024/01/02 12:33:25;;;;;;;1.10;0.77;;;9.00;99.90;;;;;;5029152;28;20356;-78
2024/01/02 12:36:14;;;;;;;1.05;0.70;;;9.00;99.90;;;;;;5025070;28;20220;-79
2024/01/02 12:38:49;;;;;;;0.80;0.70;;;9.00;99.90;;;;;;5036642;28;20210;-79
2024/01/02 12:41:21;;;;;;;0.80;0.70;;;8.90;99.90;;;;;;5022338;28;20229;-77
2024/01/02 12:43:52;;;;;;;0.73;0.60;;;8.90;99.90;;;;;;5014004;28;20217;-78
2024/01/02 12:46:26;;;;;;;4.82;0.80;;;8.90;99.90;;;;;;5026321;28;20208;-78
2024/01/02 12:49:04;;;;;;;0.80;0.70;;;9.00;99.90;;;;;;5023744;28;20208;-79
2024/01/02 12:51:33;;;;;;;0.80;0.70;;;8.90;99.90;;;;;;5021725;28;20226;-79
2024/01/02 12:54:02;;;;;;;0.80;0.70;;;8.90;99.90;;;;;;5018677;28;21013;-79
2024/01/02 12:56:32;;;;;;;0.75;0.65;;;8.90;99.90;;;;;;5009860;28;20665;-79
2024/01/02 12:59:04;;;;;;;0.90;0.80;;;8.90;99.90;;;;;;5007339;28;20240;-78
2024/01/02 13:01:31;;;;;;;0.80;0.70;;;8.80;99.90;;;;;;5008990;28;20648;-79
2024/01/02 13:03:59;;;;;;;1.00;0.80;;;8.90;99.90;;;;;;5018469;28;20263;-78
2024/01/02 13:06:27;;;;;;;1.10;0.80;;;8.80;99.90;;;;;;5009323;28;20753;-78
2024/01/02 13:08:54;;;;;;;0.93;0.70;;;8.80;99.90;;;;;;5013804;28;20205;-78